createdAt,value
2018-03-15T00:00:51.789Z,99580.83
2018-03-15T00:03:26.240Z,99577.39
2018-03-15T00:05:54.973Z,99571.23
2018-03-15T00:08:23.050Z,99563.02
2018-03-15T00:10:51.443Z,99558.22
2018-03-15T00:13:19.317Z,99550.82
2018-03-15T00:15:47.236Z,99546.44
2018-03-15T00:18:15.132Z,99547.74
2018-03-15T00:20:43.775Z,99545.08
2018-03-15T00:23:10.901Z,99545.97
2018-03-15T00:25:39.027Z,99543.36
2018-03-15T00:28:07.821Z,99536.44
2018-03-15T00:30:37.125Z,99539.45
2018-03-15T00:33:05.123Z,99539.04
2018-03-15T00:35:32.461Z,99539.93
2018-03-15T00:38:01.075Z,99536.02
2018-03-15T00:40:29.361Z,99531.70
2018-03-15T00:42:56.874Z,99533.48
2018-03-15T00:45:23.988Z,99526.97
2018-03-15T00:47:51.858Z,99519.16
2018-03-15T00:50:18.991Z,99519.63
2018-03-15T00:52:47.253Z,99520.52
2018-03-15T00:55:15.137Z,99511.82
2018-03-15T00:57:43.000Z,99506.27
2018-03-15T01:00:10.134Z,99507.97
2018-03-15T01:02:38.025Z,99506.73
2018-03-15T01:05:05.926Z,99500.64
2018-03-15T01:07:33.039Z,99495.84
2018-03-15T01:10:00.552Z,99487.62
2018-03-15T01:12:27.649Z,99485.43
2018-03-15T01:14:54.792Z,99481.94
2018-03-15T01:17:23.053Z,99476.73
2018-03-15T01:19:51.303Z,99471.94
2018-03-15T01:22:18.427Z,99478.86
2018-03-15T01:24:45.539Z,99477.49
2018-03-15T01:27:13.833Z,99469.27
2018-03-15T01:29:41.700Z,99460.56
2018-03-15T01:32:08.821Z,99460.16
2018-03-15T01:34:37.451Z,99454.06
2018-03-15T01:37:04.946Z,99450.15
2018-03-15T01:39:33.597Z,99449.73
2018-03-15T01:42:01.842Z,99456.19
2018-03-15T01:44:30.085Z,99444.47
2018-03-15T01:46:57.191Z,99443.58
2018-03-15T01:49:25.469Z,99438.38
2018-03-15T01:51:53.732Z,99431.38
2018-03-15T01:54:21.965Z,99437.48
2018-03-15T01:56:49.824Z,99435.29
2018-03-15T01:59:17.340Z,99428.72
2018-03-15T02:01:45.204Z,99433.92
2018-03-15T02:04:13.125Z,99424.88
2018-03-15T02:06:40.221Z,99417.95
2018-03-15T02:09:07.713Z,99410.55
2018-03-15T02:11:35.945Z,99410.08
2018-03-15T02:14:03.092Z,99408.30
2018-03-15T02:16:30.988Z,99410.02
2018-03-15T02:18:58.094Z,99415.70
2018-03-15T02:21:25.603Z,99413.51
2018-03-15T02:23:52.698Z,99405.70
2018-03-15T02:26:19.804Z,99398.77
2018-03-15T02:28:47.361Z,99393.50
2018-03-15T02:31:15.596Z,99391.31
2018-03-15T02:33:43.484Z,99388.70
2018-03-15T02:36:11.736Z,99385.59
2018-03-15T02:38:39.996Z,99378.19
2018-03-15T02:41:08.270Z,99379.08
2018-03-15T02:43:36.160Z,99375.59
2018-03-15T02:46:03.581Z,99376.89
2018-03-15T02:48:30.679Z,99368.67
2018-03-15T02:50:57.825Z,99374.80
2018-03-15T02:53:25.338Z,99370.89
2018-03-15T02:55:53.990Z,99365.69
2018-03-15T02:58:21.089Z,99366.98
2018-03-15T03:00:49.321Z,99351.01
2018-03-15T03:03:17.198Z,99354.02
2018-03-15T03:05:45.820Z,99355.80
2018-03-15T03:08:13.331Z,99355.39
2018-03-15T03:10:41.212Z,99344.97
2018-03-15T03:13:09.091Z,99342.84
2018-03-15T03:15:36.595Z,99346.75
2018-03-15T03:18:04.071Z,99342.02
2018-03-15T03:20:31.197Z,99335.92
2018-03-15T03:22:59.964Z,99336.34
2018-03-15T03:25:27.113Z,99331.54
2018-03-15T03:27:54.205Z,99329.77
2018-03-15T03:30:22.963Z,99332.02
2018-03-15T03:32:51.215Z,99330.23
2018-03-15T03:35:19.469Z,99332.37
2018-03-15T03:37:48.087Z,99321.54
2018-03-15T03:40:15.971Z,99321.95
2018-03-15T03:42:43.464Z,99311.53
2018-03-15T03:45:10.570Z,99318.39
2018-03-15T03:47:37.683Z,99328.81
2018-03-15T03:50:05.195Z,99325.80
2018-03-15T03:52:32.306Z,99324.91
2018-03-15T03:54:59.404Z,99324.08
2018-03-15T03:57:28.157Z,99325.70
2018-03-15T03:59:56.035Z,99318.81
2018-03-15T04:02:23.924Z,99313.60
2018-03-15T04:04:51.471Z,99311.38
2018-03-15T04:07:19.350Z,99308.77
2018-03-15T04:09:47.241Z,99300.48
2018-03-15T04:12:15.499Z,99303.98
2018-03-15T04:14:43.743Z,99305.28
2018-03-15T04:17:12.608Z,99305.78
2018-03-15T04:19:40.132Z,99301.05
2018-03-15T04:22:07.281Z,99292.83
2018-03-15T04:24:34.391Z,99299.34
2018-03-15T04:27:01.506Z,99285.91
2018-03-15T04:29:28.622Z,99293.72
2018-03-15T04:31:55.734Z,99286.32
2018-03-15T04:34:23.257Z,99287.63
2018-03-15T04:36:50.363Z,99277.62
2018-03-15T04:39:17.474Z,99285.34
2018-03-15T04:41:44.583Z,99277.52
2018-03-15T04:44:11.695Z,99272.66
2018-03-15T04:46:40.435Z,99260.95
2018-03-15T04:49:07.523Z,99253.95
2018-03-15T04:51:34.635Z,99255.67
2018-03-15T04:54:03.265Z,99251.70
2018-03-15T04:56:31.129Z,99246.42
2018-03-15T04:58:59.874Z,99238.20
2018-03-15T05:01:27.378Z,99230.33
2018-03-15T05:03:55.279Z,99225.95
2018-03-15T05:06:23.537Z,99223.27
2018-03-15T05:08:50.687Z,99211.55
2018-03-15T05:11:17.798Z,99201.08
2018-03-15T05:13:44.954Z,99192.84
2018-03-15T05:16:12.070Z,99193.67
2018-03-15T05:18:39.625Z,99193.61
2018-03-15T05:21:07.489Z,99197.04
2018-03-15T05:23:35.385Z,99189.57
2018-03-15T05:26:03.458Z,99191.66
2018-03-15T05:28:31.335Z,99183.85
2018-03-15T05:30:59.618Z,99183.38
2018-03-15T05:33:27.495Z,99182.08
2018-03-15T05:35:55.375Z,99177.75
2018-03-15T05:38:23.618Z,99174.19
2018-03-15T05:40:50.745Z,99171.59
2018-03-15T05:43:17.874Z,99164.60
2018-03-15T05:45:45.375Z,99166.73
2018-03-15T05:48:13.247Z,99157.20
2018-03-15T05:50:40.393Z,99151.03
2018-03-15T05:53:07.509Z,99156.24
2018-03-15T05:55:36.175Z,99144.11
2018-03-15T05:58:03.400Z,99148.43
2018-03-15T06:00:31.315Z,99140.55
2018-03-15T06:02:58.428Z,99146.93
2018-03-15T06:05:26.327Z,99133.49
2018-03-15T06:07:53.443Z,99139.66
2018-03-15T06:10:21.346Z,99149.53
2018-03-15T06:12:49.611Z,99149.53
2018-03-15T06:15:17.519Z,99146.52
2018-03-15T06:17:45.398Z,99139.11
2018-03-15T06:20:13.645Z,99134.80
2018-03-15T06:22:40.740Z,99131.44
2018-03-15T06:25:07.862Z,99129.72
2018-03-15T06:27:35.407Z,99125.88
2018-03-15T06:30:03.833Z,99118.06
2018-03-15T06:32:31.339Z,99118.48
2018-03-15T06:34:58.435Z,99115.39
2018-03-15T06:37:25.542Z,99113.61
2018-03-15T06:39:53.429Z,99115.33
2018-03-15T06:42:21.337Z,99111.36
2018-03-15T06:44:49.586Z,99107.86
2018-03-15T06:47:17.491Z,99106.91
2018-03-15T06:49:45.725Z,99109.92
2018-03-15T06:52:12.885Z,99115.55
2018-03-15T06:54:40.033Z,99116.36
2018-03-15T06:57:07.134Z,99113.34
2018-03-15T06:59:34.233Z,99117.19
2018-03-15T07:02:02.233Z,99123.60
2018-03-15T07:04:29.329Z,99125.73
2018-03-15T07:06:56.454Z,99131.34
2018-03-15T07:09:23.556Z,99132.17
2018-03-15T07:11:50.681Z,99126.14
2018-03-15T07:14:17.804Z,99128.33
2018-03-15T07:16:46.599Z,99133.48
2018-03-15T07:19:13.707Z,99130.88
2018-03-15T07:21:40.837Z,99131.28
2018-03-15T07:24:07.960Z,99127.79
2018-03-15T07:26:35.109Z,99123.47
2018-03-15T07:29:02.274Z,99128.68
2018-03-15T07:31:29.793Z,99132.11
2018-03-15T07:33:57.667Z,99136.97
2018-03-15T07:36:24.829Z,99139.23
2018-03-15T07:38:51.952Z,99130.63
2018-03-15T07:41:19.469Z,99132.72
2018-03-15T07:43:47.718Z,99127.92
2018-03-15T07:46:14.864Z,99115.24
2018-03-15T07:48:41.968Z,99105.65
2018-03-15T07:51:09.135Z,99098.66
2018-03-15T07:53:36.260Z,99094.34
2018-03-15T07:56:03.777Z,99094.69
2018-03-15T07:58:30.891Z,99093.37
2018-03-15T08:00:59.515Z,99084.27
2018-03-15T08:03:27.047Z,99085.56
2018-03-15T08:05:55.658Z,99082.00
2018-03-15T08:08:23.554Z,99087.21
2018-03-15T08:10:51.416Z,99086.26
2018-03-15T08:13:18.543Z,99084.13
2018-03-15T08:15:46.434Z,99073.23
2018-03-15T08:18:13.568Z,99062.41
2018-03-15T08:20:42.182Z,99066.72
2018-03-15T08:23:09.729Z,99063.64
2018-03-15T08:25:37.638Z,99072.75
2018-03-15T08:28:05.550Z,99061.92
2018-03-15T08:30:33.784Z,99070.56
2018-03-15T08:33:00.914Z,99067.47
2018-03-15T08:35:28.055Z,99067.55
2018-03-15T08:37:56.674Z,99067.95
2018-03-15T08:40:23.800Z,99066.58
2018-03-15T08:42:51.677Z,99066.93
2018-03-15T08:45:19.540Z,99061.78
2018-03-15T08:47:48.172Z,99053.08
2018-03-15T08:50:16.036Z,99051.78
2018-03-15T08:52:44.779Z,99040.47
2018-03-15T08:55:13.391Z,99042.25
2018-03-15T08:57:40.502Z,99036.97
2018-03-15T09:00:07.597Z,99044.31
2018-03-15T09:02:34.735Z,99041.29
2018-03-15T09:05:03.443Z,99033.37
2018-03-15T09:07:30.554Z,99032.08
2018-03-15T09:09:59.314Z,99027.79
2018-03-15T09:12:26.824Z,99025.56
2018-03-15T09:14:55.056Z,99024.60
2018-03-15T09:17:22.163Z,99024.19
2018-03-15T09:19:49.294Z,99020.28
2018-03-15T09:22:16.389Z,99012.06
2018-03-15T09:24:43.494Z,99007.67
2018-03-15T09:27:10.610Z,99009.38
2018-03-15T09:29:38.118Z,99012.40
2018-03-15T09:32:05.264Z,98997.25
2018-03-15T09:34:34.112Z,98995.47
2018-03-15T09:37:01.208Z,98991.49
2018-03-15T09:39:28.383Z,98984.98
2018-03-15T09:41:55.986Z,98981.48
2018-03-15T09:44:23.867Z,98975.38
2018-03-15T09:46:52.144Z,98973.60
2018-03-15T09:49:19.285Z,98972.78
2018-03-15T09:51:46.433Z,98969.70
2018-03-15T09:54:13.593Z,98966.67
2018-03-15T09:56:41.919Z,98964.89
2018-03-15T09:59:10.168Z,98960.03
2018-03-15T10:01:38.474Z,98957.02
2018-03-15T10:04:06.376Z,98954.88
2018-03-15T10:06:33.539Z,98955.64
2018-03-15T10:09:00.712Z,98951.73
2018-03-15T10:11:27.804Z,98946.11
2018-03-15T10:13:56.062Z,98944.81
2018-03-15T10:16:24.344Z,98943.84
2018-03-15T10:18:51.459Z,98940.42
2018-03-15T10:21:19.381Z,98939.94
2018-03-15T10:23:46.521Z,98930.82
2018-03-15T10:26:14.072Z,98935.55
2018-03-15T10:28:41.185Z,98924.31
2018-03-15T10:31:08.346Z,98929.03
2018-03-15T10:33:38.595Z,98935.06
2018-03-15T10:36:05.776Z,98929.45
2018-03-15T10:38:34.633Z,98922.94
2018-03-15T10:41:01.941Z,98918.55
2018-03-15T10:43:29.828Z,98917.80
2018-03-15T10:45:58.477Z,98912.17
2018-03-15T10:48:25.617Z,98919.03
2018-03-15T10:50:52.759Z,98911.28
2018-03-15T10:53:19.886Z,98913.00
2018-03-15T10:55:47.033Z,98913.48
2018-03-15T10:58:14.157Z,98910.05
2018-03-15T11:00:48.046Z,98913.89
2018-03-15T11:03:17.441Z,98913.95
2018-03-15T11:05:46.447Z,98910.87
2018-03-15T11:08:19.122Z,98907.86
2018-03-15T11:10:46.250Z,98901.34
2018-03-15T11:13:13.398Z,98895.72
2018-03-15T11:15:40.526Z,98899.56
2018-03-15T11:18:07.683Z,98890.44
2018-03-15T11:20:34.828Z,98882.63
2018-03-15T11:23:01.982Z,98883.93
2018-03-15T11:25:30.254Z,98882.63
2018-03-15T11:27:59.609Z,98878.72
2018-03-15T11:30:27.509Z,98874.40
2018-03-15T11:32:54.672Z,98883.11
2018-03-15T11:35:21.798Z,98875.63
2018-03-15T11:37:48.926Z,98882.48
2018-03-15T11:40:16.115Z,98875.16
2018-03-15T11:42:44.902Z,98882.14
2018-03-15T11:45:13.546Z,98876.94
2018-03-15T11:47:40.697Z,98871.66
2018-03-15T11:50:07.828Z,98872.55
2018-03-15T11:52:35.844Z,98869.12
2018-03-15T11:55:03.013Z,98869.05
2018-03-15T11:57:30.540Z,98862.54
2018-03-15T11:59:59.353Z,98862.95
2018-03-15T12:02:26.891Z,98862.95
2018-03-15T12:04:54.055Z,98853.34
2018-03-15T12:07:22.819Z,98850.81
2018-03-15T12:09:50.007Z,98849.99
2018-03-15T12:12:17.218Z,98846.98
2018-03-15T12:14:44.782Z,98840.88
2018-03-15T12:17:13.042Z,98834.43
2018-03-15T12:19:40.195Z,98827.51
2018-03-15T12:22:08.967Z,98833.61
2018-03-15T12:24:36.067Z,98827.03
2018-03-15T12:27:04.071Z,98822.30
2018-03-15T12:29:31.178Z,98825.10
2018-03-15T12:31:59.803Z,98826.55
2018-03-15T12:34:27.324Z,98814.89
2018-03-15T12:36:55.940Z,98810.16
2018-03-15T12:39:23.522Z,98810.72
2018-03-15T12:41:50.667Z,98810.30
2018-03-15T12:44:17.779Z,98809.89
2018-03-15T12:46:44.901Z,98807.70
2018-03-15T12:49:11.996Z,98813.80
2018-03-15T12:51:39.894Z,98812.91
2018-03-15T12:54:07.772Z,98802.91
2018-03-15T12:56:36.401Z,98806.33
2018-03-15T12:59:04.725Z,98804.13
2018-03-15T13:01:31.862Z,98805.84
2018-03-15T13:03:59.752Z,98807.08
2018-03-15T13:06:27.655Z,98792.34
2018-03-15T13:08:55.904Z,98796.17
2018-03-15T13:11:23.803Z,98788.77
2018-03-15T13:13:52.034Z,98786.58
2018-03-15T13:16:20.676Z,98784.87
2018-03-15T13:18:48.178Z,98780.48
2018-03-15T13:21:16.473Z,98779.59
2018-03-15T13:23:43.582Z,98786.02
2018-03-15T13:26:11.453Z,98781.61
2018-03-15T13:28:40.223Z,98778.62
2018-03-15T13:31:08.093Z,98773.89
2018-03-15T13:33:35.227Z,98769.98
2018-03-15T13:36:02.996Z,98764.77
2018-03-15T13:38:30.908Z,98773.00
2018-03-15T13:40:58.783Z,98770.80
2018-03-15T13:43:25.941Z,98776.80
2018-03-15T13:45:53.805Z,98767.28
2018-03-15T13:48:20.952Z,98773.72
2018-03-15T13:50:49.730Z,98777.22
2018-03-15T13:53:16.862Z,98777.70
2018-03-15T13:55:44.004Z,98779.41
2018-03-15T13:58:11.897Z,98780.64
2018-03-15T14:00:39.766Z,98775.02
2018-03-15T14:03:06.888Z,98773.72
2018-03-15T14:05:34.744Z,98770.22
2018-03-15T14:08:01.972Z,98768.09
2018-03-15T14:10:29.931Z,98773.72
2018-03-15T14:12:57.807Z,98772.83
2018-03-15T14:15:24.933Z,98772.01
2018-03-15T14:17:52.440Z,98770.70
2018-03-15T14:20:19.961Z,98772.90
2018-03-15T14:22:48.721Z,98782.91
2018-03-15T14:25:15.833Z,98774.30
2018-03-15T14:27:44.793Z,98773.41
2018-03-15T14:30:12.659Z,98778.62
2018-03-15T14:32:40.803Z,98776.80
2018-03-15T14:35:08.908Z,98776.39
2018-03-15T14:37:36.971Z,98778.11
2018-03-15T14:40:04.792Z,98778.52
2018-03-15T14:42:33.145Z,98774.20
2018-03-15T14:45:01.469Z,98783.25
2018-03-15T14:47:29.761Z,98781.46
2018-03-15T14:49:58.522Z,98780.16
2018-03-15T14:52:29.055Z,98782.77
2018-03-15T14:54:58.520Z,98781.95
2018-03-15T14:57:27.711Z,98779.27
2018-03-15T14:59:56.785Z,98777.08
2018-03-15T15:02:25.233Z,98774.95
2018-03-15T15:04:54.176Z,98778.38
2018-03-15T15:07:22.424Z,98778.30
2018-03-15T15:09:51.840Z,98772.27
2018-03-15T15:12:21.051Z,98773.09
2018-03-15T15:14:49.685Z,98770.90
2018-03-15T15:17:18.856Z,98772.27
2018-03-15T15:19:48.006Z,98770.48
2018-03-15T15:22:16.458Z,98770.08
2018-03-15T15:24:44.851Z,98770.56
2018-03-15T15:27:13.245Z,98776.25
2018-03-15T15:29:41.805Z,98770.63
2018-03-15T15:32:11.037Z,98764.05
2018-03-15T15:34:38.929Z,98759.73
2018-03-15T15:37:07.636Z,98764.12
2018-03-15T15:39:35.788Z,98768.77
2018-03-15T15:42:03.208Z,98762.67
2018-03-15T15:44:30.343Z,98769.59
2018-03-15T15:46:57.467Z,98762.60
2018-03-15T15:49:24.587Z,98759.66
2018-03-15T15:51:52.463Z,98758.36
2018-03-15T15:54:20.701Z,98753.97
2018-03-15T15:56:47.807Z,98751.77
2018-03-15T15:59:14.919Z,98741.76
2018-03-15T16:01:42.017Z,98751.70
2018-03-15T16:04:09.930Z,98753.97
2018-03-15T16:06:37.860Z,98745.26
2018-03-15T16:09:06.487Z,98752.66
2018-03-15T16:11:33.628Z,98753.55
2018-03-15T16:14:02.670Z,98751.70
2018-03-15T16:16:31.312Z,98754.38
2018-03-15T16:19:00.046Z,98752.73
2018-03-15T16:21:27.946Z,98750.87
2018-03-15T16:23:55.819Z,98755.68
2018-03-15T16:26:24.061Z,98754.78
2018-03-15T16:28:51.970Z,98767.33
2018-03-15T16:31:19.094Z,98760.00
2018-03-15T16:33:46.192Z,98765.20
2018-03-15T16:36:14.067Z,98766.92
2018-03-15T16:38:41.940Z,98772.13
2018-03-15T16:41:09.811Z,98772.13
2018-03-15T16:43:38.078Z,98772.61
2018-03-15T16:46:06.544Z,98782.55
2018-03-15T16:48:35.321Z,98792.63
2018-03-15T16:51:02.927Z,98801.34
2018-03-15T16:53:30.817Z,98808.67
2018-03-15T16:55:57.923Z,98816.48
2018-03-15T16:58:26.811Z,98817.38
2018-03-15T17:00:55.689Z,98823.00
2018-03-15T17:03:23.999Z,98823.00
2018-03-15T17:05:51.513Z,98829.45
2018-03-15T17:08:18.656Z,98829.45
2018-03-15T17:10:46.181Z,98832.05
2018-03-15T17:13:14.091Z,98839.87
2018-03-15T17:15:41.967Z,98832.94
2018-03-15T17:18:10.238Z,98845.97
2018-03-15T17:20:38.123Z,98848.91
2018-03-15T17:23:06.007Z,98849.87
2018-03-15T17:25:34.531Z,98849.33
2018-03-15T17:28:02.446Z,98846.31
2018-03-15T17:30:30.338Z,98847.61
2018-03-15T17:32:58.575Z,98844.52
2018-03-15T17:35:27.271Z,98847.20
2018-03-15T17:37:55.259Z,98853.23
2018-03-15T17:40:23.539Z,98849.33
2018-03-15T17:42:52.169Z,98851.93
2018-03-15T17:45:20.470Z,98859.61
2018-03-15T17:47:49.404Z,98864.06
2018-03-15T17:50:19.176Z,98862.77
2018-03-15T17:52:49.195Z,98863.11
2018-03-15T17:55:18.295Z,98857.89
2018-03-15T17:57:45.590Z,98853.58
2018-03-15T18:00:13.749Z,98859.20
2018-03-15T18:02:43.043Z,98863.92
2018-03-15T18:05:12.932Z,98862.62
2018-03-15T18:07:42.509Z,98864.34
2018-03-15T18:10:12.008Z,98863.52
2018-03-15T18:12:41.042Z,98867.77
2018-03-15T18:15:08.719Z,98871.27
2018-03-15T18:17:36.998Z,98870.38
2018-03-15T18:20:05.973Z,98873.80
2018-03-15T18:22:34.022Z,98869.48
2018-03-15T18:25:03.218Z,98876.88
2018-03-15T18:27:33.519Z,98878.19
2018-03-15T18:30:03.854Z,98886.83
2018-03-15T18:32:32.324Z,98885.94
2018-03-15T18:35:02.265Z,98890.25
2018-03-15T18:37:31.403Z,98896.35
2018-03-15T18:40:00.892Z,98899.75
2018-03-15T18:42:31.581Z,98897.97
2018-03-15T18:44:59.836Z,98900.16
2018-03-15T18:47:28.930Z,98903.66
2018-03-15T18:49:57.959Z,98906.20
2018-03-15T18:52:27.154Z,98906.61
2018-03-15T18:54:57.092Z,98911.00
2018-03-15T18:57:25.373Z,98907.56
2018-03-15T18:59:53.643Z,98909.21
2018-03-15T19:02:22.558Z,98911.81
2018-03-15T19:04:51.907Z,98913.13
2018-03-15T19:07:21.424Z,98921.76
2018-03-15T19:09:49.730Z,98917.38
2018-03-15T19:12:19.654Z,98924.30
2018-03-15T19:14:50.070Z,98921.28
2018-03-15T19:17:19.426Z,98920.39
2018-03-15T19:19:47.687Z,98920.80
2018-03-15T19:22:15.871Z,98922.51
2018-03-15T19:24:45.725Z,98926.83
2018-03-15T19:27:14.650Z,98930.73
2018-03-15T19:29:43.899Z,98935.88
2018-03-15T19:32:12.306Z,98939.38
2018-03-15T19:34:41.499Z,98939.38
2018-03-15T19:37:11.343Z,98942.80
2018-03-15T19:39:41.359Z,98955.42
2018-03-15T19:42:10.560Z,98954.94
2018-03-15T19:44:40.303Z,98952.82
2018-03-15T19:47:09.980Z,98961.39
2018-03-15T19:49:38.226Z,98970.92
2018-03-15T19:52:07.242Z,98966.19
2018-03-15T19:54:35.486Z,98962.69
2018-03-15T19:57:03.800Z,98968.31
2018-03-15T19:59:33.530Z,98971.74
2018-03-15T20:02:02.019Z,98967.42
2018-03-15T20:04:30.270Z,98971.27
2018-03-15T20:06:59.414Z,98970.44
2018-03-15T20:09:27.466Z,98968.31
2018-03-15T20:11:57.463Z,98969.13
2018-03-15T20:14:25.786Z,98969.55
2018-03-15T20:16:54.122Z,98969.06
2018-03-15T20:19:24.032Z,98966.88
2018-03-15T20:21:53.329Z,98967.70
2018-03-15T20:24:28.803Z,98962.00
2018-03-15T20:26:57.298Z,98963.78
2018-03-15T20:29:25.787Z,98971.60
2018-03-15T20:31:55.386Z,98966.39
2018-03-15T20:34:24.616Z,98964.34
2018-03-15T20:36:54.643Z,98969.06
2018-03-15T20:39:30.043Z,98977.37
2018-03-15T20:41:58.506Z,98972.22
2018-03-15T20:44:28.536Z,98977.44
2018-03-15T20:47:02.612Z,98983.95
2018-03-15T20:49:32.688Z,98986.55
2018-03-15T20:52:02.424Z,98986.97
2018-03-15T20:54:31.874Z,98986.48
2018-03-15T20:57:01.859Z,98991.62
2018-03-15T20:59:30.278Z,98994.72
2018-03-15T21:02:00.142Z,98993.83
2018-03-15T21:04:29.134Z,98991.62
2018-03-15T21:06:57.450Z,98988.55
2018-03-15T21:09:25.797Z,98992.04
2018-03-15T21:11:55.082Z,98995.47
2018-03-15T21:14:23.352Z,98994.16
2018-03-15T21:16:54.085Z,99001.57
2018-03-15T21:19:24.041Z,99003.70
2018-03-15T21:21:54.240Z,98998.97
2018-03-15T21:24:23.284Z,98994.58
2018-03-15T21:26:52.138Z,98996.29
2018-03-15T21:29:22.027Z,98979.42
2018-03-15T21:31:51.939Z,98985.45
2018-03-15T21:34:19.782Z,98987.17
2018-03-15T21:36:48.770Z,98983.27
2018-03-15T21:39:16.599Z,98976.23
2018-03-15T21:41:44.479Z,98977.53
2018-03-15T21:44:13.349Z,98971.44
2018-03-15T21:46:42.797Z,98966.22
2018-03-15T21:49:11.223Z,98963.61
2018-03-15T21:51:39.016Z,98959.70
2018-03-15T21:54:06.951Z,98956.31
2018-03-15T21:56:34.362Z,98947.50
2018-03-15T21:59:03.426Z,98948.32
2018-03-15T22:01:31.126Z,98942.22
2018-03-15T22:03:59.229Z,98941.33
2018-03-15T22:06:28.542Z,98939.68
2018-03-15T22:08:56.890Z,98941.46
2018-03-15T22:11:24.764Z,98932.75
2018-03-15T22:13:53.363Z,98940.57
2018-03-15T22:16:21.552Z,98940.67
2018-03-15T22:18:49.840Z,98940.33
2018-03-15T22:21:17.900Z,98940.74
2018-03-15T22:23:46.397Z,98932.17
2018-03-15T22:26:16.550Z,98936.49
2018-03-15T22:28:44.813Z,98935.19
2018-03-15T22:31:13.731Z,98940.88
2018-03-15T22:33:43.657Z,98938.76
2018-03-15T22:36:12.470Z,98933.62
2018-03-15T22:38:41.273Z,98938.83
2018-03-15T22:41:10.485Z,98936.70
2018-03-15T22:43:40.001Z,98937.19
2018-03-15T22:46:08.583Z,98934.98
2018-03-15T22:48:37.387Z,98938.08
2018-03-15T22:51:06.275Z,98938.97
2018-03-15T22:53:35.704Z,98942.47
2018-03-15T22:56:03.787Z,98942.39
2018-03-15T22:58:34.037Z,98949.39
2018-03-15T23:01:03.477Z,98946.85
2018-03-15T23:03:32.156Z,98942.53
2018-03-15T23:06:01.674Z,98951.17
2018-03-15T23:08:32.022Z,98943.02
2018-03-15T23:11:02.044Z,98944.31
2018-03-15T23:13:30.352Z,98947.41
2018-03-15T23:15:59.500Z,98945.28
2018-03-15T23:18:27.937Z,98948.30
2018-03-15T23:20:56.225Z,98949.59
2018-03-15T23:23:26.145Z,98949.59
2018-03-15T23:25:55.259Z,98947.88
2018-03-15T23:28:24.286Z,98948.36
2018-03-15T23:30:54.165Z,98947.95
2018-03-15T23:33:22.490Z,98949.77
2018-03-15T23:35:51.680Z,98954.47
2018-03-15T23:38:20.063Z,98950.18
2018-03-15T23:40:50.016Z,98949.77
2018-03-15T23:43:20.132Z,98957.58
2018-03-15T23:45:48.747Z,98953.34
2018-03-15T23:48:17.328Z,98956.77
2018-03-15T23:50:46.142Z,98957.25
2018-03-15T23:53:14.367Z,98958.95
2018-03-15T23:55:44.165Z,98957.25
2018-03-15T23:58:12.478Z,98965.47
